Time;durP1;ratioP1;P1;durP2;ratioP2;P2;SDS_P1;SDS_P2;PMS_P1;PMS_P2;Temp;Humidity;BMP_temperature;BMP_pressure;BME280_temperature;BME280_humidity;BME280_pressure;Samples;Min_cycle;Max_cycle;Signal;HPM_P1;HPM_P2
2022/08/15 00:01:01;;;;;;;9.83;8.93;;;;;;;;;;5050660;28;20431;-52
2022/08/15 00:03:31;;;;;;;9.50;8.50;;;;;;;;;;5052893;28;20440;-52
2022/08/15 00:05:59;;;;;;;9.27;8.40;;;;;;;;;;5053110;28;20808;-52
2022/08/15 00:08:25;;;;;;;9.40;8.50;;;;;;;;;;5053465;28;20420;-52
2022/08/15 00:10:51;;;;;;;10.00;9.00;;;;;;;;;;5049702;28;20466;-52
2022/08/15 00:13:20;;;;;;;10.90;8.30;;;;;;;;;;5033017;28;20450;-52
2022/08/15 00:15:48;;;;;;;9.80;8.80;;;;;;;;;;5034469;28;20500;-53
2022/08/15 00:18:14;;;;;;;11.33;9.27;;;;;;;;;;5033454;28;20418;-52
2022/08/15 00:20:40;;;;;;;10.93;9.40;;;;;;;;;;5033076;28;20421;-52
2022/08/15 00:23:09;;;;;;;12.30;11.07;;;;;;;;;;5052980;28;20775;-52
2022/08/15 00:25:37;;;;;;;11.43;10.20;;;;;;;;;;5050957;28;20405;-53
2022/08/15 00:28:05;;;;;;;10.83;9.70;;;;;;;;;;5033193;28;20422;-53
2022/08/15 00:30:31;;;;;;;12.30;9.60;;;;;;;;;;5033471;28;20882;-52
2022/08/15 00:32:58;;;;;;;10.50;9.50;;;;;;;;;;5052990;28;20484;-52
2022/08/15 00:35:37;;;;;;;11.83;9.70;;;;;;;;;;5052809;28;20408;-53
2022/08/15 00:38:15;;;;;;;10.80;9.80;;;;;;;;;;5038331;28;20432;-53
2022/08/15 00:43:28;;;;;;;9.27;8.37;;;;;;;;;;5033069;28;20408;-53
2022/08/15 00:45:54;;;;;;;11.13;8.77;;;;;;;;;;5034268;28;20847;-52
2022/08/15 00:51:08;;;;;;;10.00;9.10;;;;;;;;;;5051279;28;20476;-52
2022/08/15 00:53:34;;;;;;;10.70;9.60;;;;;;;;;;5052549;28;20419;-53
2022/08/15 00:56:01;;;;;;;9.47;8.60;;;;;;;;;;5052025;28;20509;-53
2022/08/15 00:58:27;;;;;;;9.60;8.70;;;;;;;;;;5052337;28;20422;-53
2022/08/15 01:00:53;;;;;;;9.63;8.77;;;;;;;;;;5049374;28;20421;-53
2022/08/15 01:03:21;;;;;;;9.90;9.00;;;;;;;;;;5032064;28;20781;-53
2022/08/15 01:05:49;;;;;;;10.40;9.43;;;;;;;;;;5032155;28;20497;-53
2022/08/15 01:08:16;;;;;;;10.80;9.53;;;;;;;;;;5052263;28;20433;-52
2022/08/15 01:10:42;;;;;;;9.97;9.00;;;;;;;;;;5051515;28;20507;-52
2022/08/15 01:13:08;;;;;;;9.83;8.83;;;;;;;;;;5051290;28;20923;-53
2022/08/15 01:15:34;;;;;;;10.87;9.80;;;;;;;;;;5051148;28;20451;-53
2022/08/15 01:18:00;;;;;;;12.33;9.23;;;;;;;;;;5051772;28;20441;-53
2022/08/15 01:20:29;;;;;;;11.43;8.50;;;;;;;;;;5051336;28;20410;-52
2022/08/15 01:23:13;;;;;;;9.60;8.63;;;;;;;;;;5035297;28;20445;-52
2022/08/15 01:25:43;;;;;;;10.13;9.23;;;;;;;;;;5032103;28;20402;-52
2022/08/15 01:28:09;;;;;;;10.80;9.70;;;;;;;;;;5032622;28;20429;-52
2022/08/15 01:30:43;;;;;;;10.97;9.27;;;;;;;;;;5031040;28;20549;-53
2022/08/15 01:33:09;;;;;;;9.20;8.33;;;;;;;;;;5031111;28;20439;-53
2022/08/15 01:35:36;;;;;;;10.00;9.00;;;;;;;;;;5031351;28;20400;-53
2022/08/15 01:38:04;;;;;;;10.57;8.30;;;;;;;;;;5047822;28;20429;-53
2022/08/15 01:40:58;;;;;;;8.80;8.00;;;;;;;;;;5051329;28;20482;-52
2022/08/15 01:43:25;;;;;;;10.10;7.83;;;;;;;;;;5034311;28;20410;-53
2022/08/15 01:45:53;;;;;;;12.80;8.33;;;;;;;;;;5040373;28;20429;-53
2022/08/15 01:48:30;;;;;;;10.03;7.87;;;;;;;;;;5049182;28;20812;-52
2022/08/15 01:50:58;;;;;;;11.00;7.70;;;;;;;;;;5051118;28;20455;-53
2022/08/15 01:53:28;;;;;;;12.37;7.90;;;;;;;;;;5051549;28;20417;-53
2022/08/15 01:56:12;;;;;;;7.90;7.20;;;;;;;;;;5050703;28;20414;-53
2022/08/15 01:58:39;;;;;;;9.60;7.60;;;;;;;;;;5050592;28;20417;-53
2022/08/15 02:01:08;;;;;;;8.80;8.00;;;;;;;;;;5050669;28;20508;-53
2022/08/15 02:03:35;;;;;;;9.20;8.40;;;;;;;;;;5032891;28;20452;-53
2022/08/15 02:06:02;;;;;;;9.77;7.87;;;;;;;;;;5031762;28;20599;-53
2022/08/15 02:08:28;;;;;;;10.20;8.17;;;;;;;;;;5048296;28;20833;-53
2022/08/15 02:10:53;;;;;;;8.33;7.53;;;;;;;;;;5050597;28;20452;-53
2022/08/15 02:13:20;;;;;;;9.70;8.67;;;;;;;;;;5051275;28;20417;-52
2022/08/15 02:15:46;;;;;;;9.23;8.40;;;;;;;;;;5045251;28;20432;-53
2022/08/15 02:18:12;;;;;;;11.10;10.13;;;;;;;;;;5044774;28;20444;-52
2022/08/15 02:20:38;;;;;;;10.37;9.27;;;;;;;;;;5049225;28;20411;-53
2022/08/15 02:23:04;;;;;;;9.63;8.70;;;;;;;;;;5032348;28;20427;-52
2022/08/15 02:25:30;;;;;;;11.87;9.07;;;;;;;;;;5031494;28;20886;-52
2022/08/15 02:27:57;;;;;;;10.10;9.20;;;;;;;;;;5051169;28;20439;-53
2022/08/15 02:30:23;;;;;;;10.73;9.63;;;;;;;;;;5050339;28;20516;-53
2022/08/15 02:32:49;;;;;;;10.50;9.50;;;;;;;;;;5032169;28;20483;-53
2022/08/15 02:35:16;;;;;;;8.77;7.87;;;;;;;;;;5031435;28;20880;-53
2022/08/15 02:37:43;;;;;;;11.27;9.00;;;;;;;;;;5049297;28;20449;-53
2022/08/15 02:40:11;;;;;;;10.73;9.60;;;;;;;;;;5050549;28;20408;-53
2022/08/15 02:42:38;;;;;;;10.90;8.83;;;;;;;;;;5034770;28;20410;-53
2022/08/15 02:45:07;;;;;;;9.67;8.67;;;;;;;;;;5041164;28;20429;-53
2022/08/15 02:47:34;;;;;;;9.30;8.43;;;;;;;;;;5041734;28;20452;-53
2022/08/15 02:50:01;;;;;;;10.47;9.47;;;;;;;;;;5034300;28;20535;-53
2022/08/15 02:52:27;;;;;;;9.20;8.27;;;;;;;;;;5049510;28;20788;-53
2022/08/15 02:54:53;;;;;;;11.60;8.87;;;;;;;;;;5055076;28;20394;-53
2022/08/15 02:57:19;;;;;;;10.00;9.00;;;;;;;;;;5054395;28;20505;-53
2022/08/15 02:59:46;;;;;;;10.20;8.93;;;;;;;;;;5053867;28;20539;-53
2022/08/15 03:02:12;;;;;;;9.00;8.23;;;;;;;;;;5054195;28;20473;-53
2022/08/15 03:04:38;;;;;;;6.90;6.30;;;;;;;;;;5054890;28;20405;-53
2022/08/15 03:07:04;;;;;;;13.53;8.13;;;;;;;;;;5046629;28;20436;-53
2022/08/15 03:09:31;;;;;;;8.60;6.00;;;;;;;;;;5054434;28;20436;-53
2022/08/15 03:11:57;;;;;;;8.77;7.07;;;;;;;;;;5052846;28;20454;-53
2022/08/15 03:14:24;;;;;;;7.23;6.53;;;;;;;;;;5054712;28;20437;-53
2022/08/15 03:16:50;;;;;;;7.87;6.50;;;;;;;;;;5041473;28;20963;-53
2022/08/15 03:19:19;;;;;;;7.67;6.90;;;;;;;;;;5054361;28;20405;-53
2022/08/15 03:21:47;;;;;;;8.07;5.03;;;;;;;;;;5047819;28;20933;-53
2022/08/15 03:24:13;;;;;;;5.90;5.30;;;;;;;;;;5034443;28;20406;-53
2022/08/15 03:26:39;;;;;;;5.63;5.13;;;;;;;;;;5039622;28;20525;-53
2022/08/15 03:29:06;;;;;;;5.80;4.80;;;;;;;;;;5054112;28;20770;-53
2022/08/15 03:31:34;;;;;;;5.30;4.80;;;;;;;;;;5037357;28;20463;-53
2022/08/15 03:34:00;;;;;;;5.17;4.77;;;;;;;;;;5054288;28;20443;-53
2022/08/15 03:36:26;;;;;;;5.10;4.63;;;;;;;;;;5051815;28;20421;-53
2022/08/15 03:38:53;;;;;;;5.30;4.90;;;;;;;;;;5033850;28;20412;-53
2022/08/15 03:41:19;;;;;;;5.50;5.07;;;;;;;;;;5033676;28;20886;-53
2022/08/15 03:43:46;;;;;;;5.43;4.90;;;;;;;;;;5054048;28;20450;-53
2022/08/15 03:46:13;;;;;;;4.90;4.50;;;;;;;;;;5044456;28;20430;-53
2022/08/15 03:48:45;;;;;;;5.37;4.87;;;;;;;;;;5033913;28;20402;-53
2022/08/15 03:51:11;;;;;;;6.07;4.90;;;;;;;;;;5033479;28;20454;-53
2022/08/15 03:53:44;;;;;;;5.03;4.63;;;;;;;;;;5052383;28;20543;-53
2022/08/15 03:56:11;;;;;;;6.20;4.60;;;;;;;;;;5053873;28;20401;-53
2022/08/15 03:58:38;;;;;;;5.30;4.90;;;;;;;;;;5034601;28;20496;-53
2022/08/15 04:01:09;;;;;;;4.70;4.30;;;;;;;;;;5033155;28;20425;-53
2022/08/15 04:03:35;;;;;;;4.90;4.23;;;;;;;;;;5052204;28;20421;-53
2022/08/15 04:06:06;;;;;;;7.70;5.93;;;;;;;;;;5053987;28;20397;-53
2022/08/15 04:08:32;;;;;;;5.00;4.60;;;;;;;;;;5035491;28;20505;-53
2022/08/15 04:11:01;;;;;;;5.33;4.93;;;;;;;;;;5032896;28;20451;-53
2022/08/15 04:13:27;;;;;;;4.50;4.10;;;;;;;;;;5050192;28;20999;-52
2022/08/15 04:15:54;;;;;;;5.23;4.73;;;;;;;;;;5051280;28;20400;-52
2022/08/15 04:18:20;;;;;;;4.17;3.63;;;;;;;;;;5044250;28;20441;-53
2022/08/15 04:20:47;;;;;;;5.70;5.20;;;;;;;;;;5033703;28;20402;-52
2022/08/15 04:23:13;;;;;;;4.37;4.07;;;;;;;;;;5032871;28;20556;-53
2022/08/15 04:25:40;;;;;;;6.03;5.00;;;;;;;;;;5033427;28;20433;-53
2022/08/15 04:28:06;;;;;;;5.07;4.40;;;;;;;;;;5044087;28;20433;-53
2022/08/15 04:30:38;;;;;;;6.93;5.23;;;;;;;;;;5052409;28;20445;-52
2022/08/15 04:33:11;;;;;;;10.57;4.70;;;;;;;;;;5042132;28;20422;-52
2022/08/15 04:35:40;;;;;;;6.53;4.57;;;;;;;;;;5033202;28;20398;-53
2022/08/15 04:38:05;;;;;;;4.60;3.90;;;;;;;;;;5043467;28;20530;-53
2022/08/15 04:40:32;;;;;;;5.53;5.00;;;;;;;;;;5052393;28;20444;-52
2022/08/15 04:43:00;;;;;;;5.80;4.70;;;;;;;;;;5049979;28;20420;-52
2022/08/15 04:45:28;;;;;;;5.17;4.67;;;;;;;;;;5052851;28;20413;-52
2022/08/15 04:47:54;;;;;;;6.33;4.37;;;;;;;;;;5045800;28;20527;-52
2022/08/15 04:50:20;;;;;;;4.70;4.30;;;;;;;;;;5051096;28;20441;-52
2022/08/15 04:52:48;;;;;;;4.83;4.20;;;;;;;;;;5051906;28;20466;-52
2022/08/15 04:55:14;;;;;;;6.63;4.67;;;;;;;;;;5052902;28;20407;-52
2022/08/15 04:57:40;;;;;;;5.17;4.10;;;;;;;;;;5044055;28;20462;-52
2022/08/15 05:00:09;;;;;;;4.37;4.07;;;;;;;;;;5031908;28;20418;-52
2022/08/15 05:02:35;;;;;;;3.80;3.50;;;;;;;;;;5039545;28;20425;-52
2022/08/15 05:05:01;;;;;;;4.30;3.90;;;;;;;;;;5052242;28;20402;-52
2022/08/15 05:07:27;;;;;;;4.83;3.67;;;;;;;;;;5045656;28;20929;-52
2022/08/15 05:09:54;;;;;;;3.37;3.17;;;;;;;;;;5031715;28;20917;-52
2022/08/15 05:12:20;;;;;;;6.10;3.77;;;;;;;;;;5037101;28;20667;-52
2022/08/15 05:14:46;;;;;;;5.13;3.73;;;;;;;;;;5052179;28;20413;-53
2022/08/15 05:17:12;;;;;;;7.63;4.10;;;;;;;;;;5049741;28;20454;-52
2022/08/15 05:19:38;;;;;;;4.33;4.03;;;;;;;;;;5052093;28;20401;-52
2022/08/15 05:22:04;;;;;;;3.90;3.60;;;;;;;;;;5051339;28;20413;-52
2022/08/15 05:24:30;;;;;;;4.60;4.20;;;;;;;;;;5052143;28;20401;-52
2022/08/15 05:26:56;;;;;;;4.43;3.73;;;;;;;;;;5051201;28;20528;-52
2022/08/15 05:29:22;;;;;;;4.53;3.90;;;;;;;;;;5031934;28;20410;-53
2022/08/15 05:31:48;;;;;;;4.67;4.30;;;;;;;;;;5031525;28;20519;-53
2022/08/15 05:34:15;;;;;;;5.23;4.73;;;;;;;;;;5040557;28;20422;-53
2022/08/15 05:36:42;;;;;;;7.40;4.97;;;;;;;;;;5032090;28;20457;-52
2022/08/15 05:39:20;;;;;;;6.27;4.20;;;;;;;;;;5049411;28;20428;-52
2022/08/15 05:41:50;;;;;;;4.17;3.63;;;;;;;;;;5051350;28;20411;-53
2022/08/15 05:44:22;;;;;;;4.00;3.70;;;;;;;;;;5033134;28;20437;-54
2022/08/15 05:47:05;;;;;;;5.20;3.67;;;;;;;;;;5032013;28;20521;-53
2022/08/15 05:49:40;;;;;;;6.37;3.47;;;;;;;;;;5046999;28;20429;-52
2022/08/15 05:52:25;;;;;;;4.13;3.83;;;;;;;;;;5050809;28;20467;-53
2022/08/15 05:54:54;;;;;;;4.23;3.80;;;;;;;;;;5051631;28;20535;-53
2022/08/15 05:57:22;;;;;;;11.20;4.13;;;;;;;;;;5049709;28;20983;-53
2022/08/15 05:59:50;;;;;;;7.33;4.47;;;;;;;;;;5050745;28;20413;-54
2022/08/15 06:02:19;;;;;;;9.27;3.67;;;;;;;;;;5050899;28;20876;-53
2022/08/15 06:04:53;;;;;;;6.60;3.57;;;;;;;;;;5043407;28;20780;-52
2022/08/15 06:07:20;;;;;;;4.20;3.30;;;;;;;;;;5050820;28;20975;-52
2022/08/15 06:09:52;;;;;;;4.57;3.40;;;;;;;;;;5030868;28;20808;-53
2022/08/15 06:12:20;;;;;;;3.53;3.20;;;;;;;;;;5031568;28;20977;-53
2022/08/15 06:14:49;;;;;;;4.33;3.30;;;;;;;;;;5031552;28;20766;-53
2022/08/15 06:17:25;;;;;;;5.40;3.83;;;;;;;;;;5033255;28;21186;-53
2022/08/15 06:19:52;;;;;;;4.87;4.10;;;;;;;;;;5034671;28;20421;-53
2022/08/15 06:22:36;;;;;;;9.60;3.80;;;;;;;;;;5042717;28;20425;-53
2022/08/15 06:25:14;;;;;;;4.10;3.70;;;;;;;;;;5039300;28;20493;-53
2022/08/15 06:27:43;;;;;;;4.60;3.80;;;;;;;;;;5043918;28;20806;-53
2022/08/15 06:30:14;;;;;;;3.70;3.33;;;;;;;;;;5034821;28;20500;-52
2022/08/15 06:33:01;;;;;;;4.20;3.80;;;;;;;;;;5040353;28;20429;-52
2022/08/15 06:35:44;;;;;;;4.03;3.53;;;;;;;;;;5035282;28;20413;-52
2022/08/15 06:38:14;;;;;;;4.20;3.43;;;;;;;;;;5041628;28;20447;-52
2022/08/15 06:41:00;;;;;;;3.10;2.90;;;;;;;;;;5036062;28;20901;-52
2022/08/15 06:43:26;;;;;;;3.73;3.33;;;;;;;;;;5028635;28;20916;-53
2022/08/15 06:45:54;;;;;;;5.00;3.43;;;;;;;;;;5055029;28;20404;-53
2022/08/15 06:48:23;;;;;;;4.80;3.53;;;;;;;;;;5054615;28;20500;-55
2022/08/15 06:50:51;;;;;;;5.10;3.33;;;;;;;;;;5052240;28;20465;-52
2022/08/15 06:53:29;;;;;;;3.70;3.33;;;;;;;;;;5055130;28;20390;-53
2022/08/15 06:56:14;;;;;;;4.50;3.67;;;;;;;;;;5046953;28;20448;-52
2022/08/15 06:58:58;;;;;;;4.90;3.00;;;;;;;;;;5034869;28;21091;-52
2022/08/15 07:01:36;;;;;;;4.07;3.30;;;;;;;;;;5034323;28;20505;-52
2022/08/15 07:04:21;;;;;;;2.90;2.70;;;;;;;;;;5035043;28;20489;-52
2022/08/15 07:07:03;;;;;;;3.63;2.80;;;;;;;;;;5034728;28;20450;-52
2022/08/15 07:09:39;;;;;;;5.33;3.50;;;;;;;;;;5034455;28;20401;-54
2022/08/15 07:12:20;;;;;;;3.70;3.13;;;;;;;;;;5046680;28;20542;-52
2022/08/15 07:14:58;;;;;;;4.20;3.80;;;;;;;;;;5052860;28;20448;-52
2022/08/15 07:17:30;;;;;;;3.53;3.17;;;;;;;;;;5050968;28;20434;-53
2022/08/15 07:19:56;;;;;;;7.87;4.00;;;;;;;;;;5037937;28;20930;-53
2022/08/15 07:22:22;;;;;;;4.07;3.50;;;;;;;;;;5047558;28;20429;-53
2022/08/15 07:24:51;;;;;;;8.10;4.23;;;;;;;;;;5042337;28;20424;-53
2022/08/15 07:27:18;;;;;;;6.30;4.00;;;;;;;;;;5034757;28;20984;-53
2022/08/15 07:29:46;;;;;;;4.43;3.30;;;;;;;;;;5036578;28;20416;-53
2022/08/15 07:32:30;;;;;;;3.63;3.30;;;;;;;;;;5043121;28;21069;-53
2022/08/15 07:35:14;;;;;;;2.60;2.40;;;;;;;;;;5049357;28;20509;-53
2022/08/15 07:37:46;;;;;;;3.23;2.90;;;;;;;;;;5049310;28;20438;-53
2022/08/15 07:40:18;;;;;;;8.30;3.73;;;;;;;;;;5033664;28;20416;-52
2022/08/15 07:42:44;;;;;;;6.90;3.40;;;;;;;;;;5042651;28;20420;-53
2022/08/15 07:45:20;;;;;;;3.70;3.13;;;;;;;;;;5045119;28;20426;-53
2022/08/15 07:47:54;;;;;;;9.23;3.57;;;;;;;;;;5054477;28;20833;-53
2022/08/15 07:50:34;;;;;;;4.40;3.07;;;;;;;;;;5050775;28;20431;-53
2022/08/15 07:53:10;;;;;;;5.60;3.43;;;;;;;;;;5047872;28;20449;-55
2022/08/15 07:55:36;;;;;;;3.30;3.00;;;;;;;;;;5040620;28;20414;-53
2022/08/15 07:58:16;;;;;;;2.53;2.33;;;;;;;;;;5052340;28;20928;-53
2022/08/15 08:00:49;;;;;;;6.93;3.50;;;;;;;;;;5052729;28;20437;-52
2022/08/15 08:03:20;;;;;;;3.90;2.77;;;;;;;;;;5046874;28;20415;-53
2022/08/15 08:06:10;;;;;;;2.60;2.40;;;;;;;;;;5033306;28;20429;-53
2022/08/15 08:08:52;;;;;;;4.77;3.37;;;;;;;;;;5042573;28;20435;-53
2022/08/15 08:11:38;;;;;;;6.17;4.20;;;;;;;;;;5053285;28;20444;-53
2022/08/15 08:14:12;;;;;;;7.63;3.20;;;;;;;;;;5033829;28;20410;-53
2022/08/15 08:16:47;;;;;;;4.00;2.80;;;;;;;;;;5044835;28;20531;-53
2022/08/15 08:19:19;;;;;;;4.23;2.97;;;;;;;;;;5039206;28;20417;-53
2022/08/15 08:21:48;;;;;;;3.10;2.73;;;;;;;;;;5033052;28;20759;-52
2022/08/15 08:24:22;;;;;;;3.10;2.80;;;;;;;;;;5053783;28;20408;-54
2022/08/15 08:26:48;;;;;;;6.20;2.73;;;;;;;;;;5053085;28;20417;-53
2022/08/15 08:29:29;;;;;;;4.30;3.13;;;;;;;;;;5053038;28;20428;-52
2022/08/15 08:32:03;;;;;;;5.83;3.20;;;;;;;;;;5052842;28;20560;-53
2022/08/15 08:34:39;;;;;;;10.03;3.17;;;;;;;;;;5048355;28;20398;-53
2022/08/15 08:37:24;;;;;;;3.07;2.87;;;;;;;;;;5032765;28;20834;-53
2022/08/15 08:43:09;;;;;;;4.50;4.10;;;;;;;;;;5048892;28;20415;-55
2022/08/15 08:45:43;;;;;;;3.80;3.37;;;;;;;;;;5042240;28;20426;-52
2022/08/15 08:48:11;;;;;;;2.90;2.70;;;;;;;;;;5037941;28;20434;-53
2022/08/15 08:50:39;;;;;;;3.47;3.17;;;;;;;;;;5039621;28;20493;-52
2022/08/15 08:53:04;;;;;;;4.80;2.90;;;;;;;;;;5042755;28;20429;-52
2022/08/15 08:55:38;;;;;;;3.43;3.13;;;;;;;;;;5032935;28;20959;-53
2022/08/15 08:58:12;;;;;;;3.20;2.70;;;;;;;;;;5033473;28;20437;-52
2022/08/15 09:00:43;;;;;;;4.40;2.90;;;;;;;;;;5048769;28;20427;-53
2022/08/15 09:03:19;;;;;;;3.63;2.83;;;;;;;;;;5046811;28;20493;-53
2022/08/15 09:05:51;;;;;;;3.50;3.17;;;;;;;;;;5051873;28;20416;-53
2022/08/15 09:08:37;;;;;;;5.00;3.40;;;;;;;;;;5049554;28;20435;-53
2022/08/15 09:11:08;;;;;;;4.10;2.80;;;;;;;;;;5043995;28;20452;-53
2022/08/15 09:13:36;;;;;;;3.10;2.80;;;;;;;;;;5045054;28;20426;-53
2022/08/15 09:16:14;;;;;;;4.27;3.37;;;;;;;;;;5050619;28;20418;-53
2022/08/15 09:18:46;;;;;;;2.67;2.50;;;;;;;;;;5051298;28;20424;-53
2022/08/15 09:21:12;;;;;;;2.60;2.40;;;;;;;;;;5032641;28;20429;-53
2022/08/15 09:23:40;;;;;;;10.03;3.37;;;;;;;;;;5046364;28;20786;-53
2022/08/15 09:26:33;;;;;;;4.03;2.70;;;;;;;;;;5042068;28;20420;-53
2022/08/15 09:29:10;;;;;;;3.20;2.90;;;;;;;;;;5031566;28;21000;-54
2022/08/15 09:31:37;;;;;;;4.90;2.80;;;;;;;;;;5051029;28;20464;-53
2022/08/15 09:34:03;;;;;;;4.13;3.50;;;;;;;;;;5051282;28;20491;-53
2022/08/15 09:36:37;;;;;;;7.50;3.00;;;;;;;;;;5032128;28;20444;-53
2022/08/15 09:39:13;;;;;;;5.93;4.13;;;;;;;;;;5045159;28;20466;-53
2022/08/15 09:41:51;;;;;;;5.47;3.30;;;;;;;;;;5033723;28;21001;-53
2022/08/15 09:44:23;;;;;;;4.70;3.47;;;;;;;;;;5033463;28;20468;-53
2022/08/15 09:47:15;;;;;;;4.63;3.77;;;;;;;;;;5051751;28;20420;-53
2022/08/15 09:50:07;;;;;;;5.00;3.30;;;;;;;;;;5023281;28;20422;-53
2022/08/15 09:52:35;;;;;;;7.70;3.07;;;;;;;;;;5030354;28;21045;-54
2022/08/15 09:55:06;;;;;;;5.00;3.10;;;;;;;;;;5047573;28;20812;-54
2022/08/15 09:57:36;;;;;;;3.63;3.33;;;;;;;;;;5051540;28;20444;-54
2022/08/15 10:00:15;;;;;;;2.87;2.67;;;;;;;;;;5050785;28;20471;-53
2022/08/15 10:02:44;;;;;;;4.00;3.10;;;;;;;;;;5051892;28;20516;-53
2022/08/15 10:05:22;;;;;;;4.57;3.10;;;;;;;;;;5051955;28;20461;-53
2022/08/15 10:07:48;;;;;;;3.20;2.90;;;;;;;;;;5051276;28;20478;-52
2022/08/15 10:10:21;;;;;;;4.87;3.20;;;;;;;;;;5048639;28;20944;-53
2022/08/15 10:13:05;;;;;;;4.93;2.90;;;;;;;;;;5051866;28;20405;-54
2022/08/15 10:15:41;;;;;;;4.50;3.70;;;;;;;;;;5051467;28;20472;-53
2022/08/15 10:18:08;;;;;;;3.20;2.77;;;;;;;;;;5051030;28;21055;-53
2022/08/15 10:20:34;;;;;;;4.80;2.80;;;;;;;;;;5050685;28;20451;-53
2022/08/15 10:23:00;;;;;;;4.87;3.20;;;;;;;;;;5032519;28;20430;-54
2022/08/15 10:25:28;;;;;;;5.70;3.40;;;;;;;;;;5031262;28;20406;-53
2022/08/15 10:27:59;;;;;;;3.70;3.07;;;;;;;;;;5031177;28;20414;-54
2022/08/15 10:30:27;;;;;;;4.77;2.90;;;;;;;;;;5030454;28;20406;-53
2022/08/15 10:32:53;;;;;;;3.87;3.17;;;;;;;;;;5031390;28;20412;-53
2022/08/15 10:35:23;;;;;;;2.83;2.63;;;;;;;;;;5031435;28;20406;-52
2022/08/15 10:37:51;;;;;;;6.20;3.87;;;;;;;;;;5030891;28;20957;-52
2022/08/15 10:40:32;;;;;;;3.13;2.83;;;;;;;;;;5030613;28;20402;-53
2022/08/15 10:43:04;;;;;;;3.47;2.67;;;;;;;;;;5030137;28;20398;-52
2022/08/15 10:45:59;;;;;;;3.00;2.80;;;;;;;;;;5031283;28;20894;-52
2022/08/15 10:48:28;;;;;;;3.67;3.37;;;;;;;;;;5030402;28;20437;-52
2022/08/15 10:51:21;;;;;;;8.03;3.40;;;;;;;;;;5030030;28;20469;-52
2022/08/15 10:54:05;;;;;;;6.70;3.57;;;;;;;;;;5046294;28;20503;-53
2022/08/15 10:56:33;;;;;;;3.97;3.40;;;;;;;;;;5050944;28;20413;-52
2022/08/15 10:59:07;;;;;;;4.73;3.30;;;;;;;;;;5050668;28;20454;-53
2022/08/15 11:01:34;;;;;;;3.70;3.40;;;;;;;;;;5050331;28;20917;-53
2022/08/15 11:04:02;;;;;;;3.77;3.40;;;;;;;;;;5052172;28;20405;-53
2022/08/15 11:06:28;;;;;;;5.10;3.17;;;;;;;;;;5054768;28;20412;-52
2022/08/15 11:09:04;;;;;;;5.70;3.90;;;;;;;;;;5054481;28;20405;-53
2022/08/15 11:11:32;;;;;;;3.73;3.27;;;;;;;;;;5054087;28;20452;-52
2022/08/15 11:14:00;;;;;;;3.60;3.30;;;;;;;;;;5055024;28;20402;-52
2022/08/15 11:16:35;;;;;;;5.63;3.00;;;;;;;;;;5054551;28;20390;-53
2022/08/15 11:19:11;;;;;;;6.53;3.30;;;;;;;;;;5054212;28;20397;-52
2022/08/15 11:21:42;;;;;;;4.73;3.27;;;;;;;;;;5042276;28;20426;-53
2022/08/15 11:24:09;;;;;;;4.43;3.53;;;;;;;;;;5034623;28;20433;-53
2022/08/15 11:26:37;;;;;;;9.00;2.77;;;;;;;;;;5037383;28;20799;-53
2022/08/15 11:29:08;;;;;;;5.67;3.00;;;;;;;;;;5034006;28;20565;-53
2022/08/15 11:31:42;;;;;;;3.40;3.10;;;;;;;;;;5033857;28;20450;-52
2022/08/15 11:34:17;;;;;;;3.40;3.10;;;;;;;;;;5034281;28;20402;-53
2022/08/15 11:36:43;;;;;;;5.33;3.30;;;;;;;;;;5034500;28;20497;-53
2022/08/15 11:39:13;;;;;;;6.70;3.90;;;;;;;;;;5032598;28;20497;-53
2022/08/15 11:41:41;;;;;;;5.83;3.67;;;;;;;;;;5032247;28;20911;-53
2022/08/15 11:44:09;;;;;;;4.27;3.50;;;;;;;;;;5034221;28;21120;-53
2022/08/15 11:46:35;;;;;;;2.80;2.50;;;;;;;;;;5033999;28;20490;-52
2022/08/15 11:49:04;;;;;;;10.47;3.57;;;;;;;;;;5034598;28;20501;-52
2022/08/15 11:51:35;;;;;;;3.60;3.17;;;;;;;;;;5036697;28;20564;-53
2022/08/15 11:54:04;;;;;;;2.97;2.77;;;;;;;;;;5034179;28;20461;-53
2022/08/15 11:56:48;;;;;;;10.80;3.27;;;;;;;;;;5033960;28;20476;-53
2022/08/15 11:59:34;;;;;;;13.17;2.97;;;;;;;;;;5033592;28;20914;-52
2022/08/15 12:02:00;;;;;;;3.63;3.33;;;;;;;;;;5034023;28;20889;-52
2022/08/15 12:04:34;;;;;;;3.97;3.67;;;;;;;;;;5053802;28;20417;-52
2022/08/15 12:07:12;;;;;;;6.27;3.77;;;;;;;;;;5053825;28;20819;-53
2022/08/15 12:09:39;;;;;;;4.37;3.40;;;;;;;;;;5053038;28;20413;-52
2022/08/15 12:12:15;;;;;;;3.70;3.40;;;;;;;;;;5052979;28;20492;-52
2022/08/15 12:14:46;;;;;;;3.90;3.50;;;;;;;;;;5053379;28;20412;-51
2022/08/15 12:17:23;;;;;;;4.00;3.70;;;;;;;;;;5053514;28;20445;-52
2022/08/15 12:19:54;;;;;;;3.80;3.50;;;;;;;;;;5052175;28;20487;-52
2022/08/15 12:22:31;;;;;;;4.80;3.50;;;;;;;;;;5051838;28;20425;-53
2022/08/15 12:24:57;;;;;;;3.47;3.17;;;;;;;;;;5053259;28;20409;-52
2022/08/15 12:27:23;;;;;;;5.27;3.37;;;;;;;;;;5053131;28;20424;-53
2022/08/15 12:29:50;;;;;;;5.30;3.70;;;;;;;;;;5052242;28;20948;-53
2022/08/15 12:32:16;;;;;;;4.77;3.97;;;;;;;;;;5052810;28;20460;-52
2022/08/15 12:34:49;;;;;;;6.90;4.07;;;;;;;;;;5053002;28;20401;-53
2022/08/15 12:37:17;;;;;;;6.63;4.00;;;;;;;;;;5053003;28;20433;-52
2022/08/15 12:39:45;;;;;;;4.87;3.37;;;;;;;;;;5052106;28;20401;-54
2022/08/15 12:42:12;;;;;;;3.90;3.43;;;;;;;;;;5052639;28;20405;-52
2022/08/15 12:44:38;;;;;;;4.13;3.83;;;;;;;;;;5052872;28;20967;-52
2022/08/15 12:47:05;;;;;;;6.33;3.60;;;;;;;;;;5052637;28;20417;-52
2022/08/15 12:49:31;;;;;;;6.43;3.90;;;;;;;;;;5052456;28;20820;-52
2022/08/15 12:51:57;;;;;;;4.00;3.60;;;;;;;;;;5044163;28;20462;-52
2022/08/15 12:54:23;;;;;;;5.00;3.80;;;;;;;;;;5044097;28;20425;-53
2022/08/15 12:56:49;;;;;;;4.93;3.90;;;;;;;;;;5052522;28;21016;-53
2022/08/15 12:59:15;;;;;;;3.90;3.60;;;;;;;;;;5052392;28;20435;-51
2022/08/15 13:01:42;;;;;;;4.90;4.33;;;;;;;;;;5051725;28;20802;-52
2022/08/15 13:04:10;;;;;;;4.70;3.67;;;;;;;;;;5052546;28;20848;-52
2022/08/15 13:06:44;;;;;;;8.10;4.63;;;;;;;;;;5052292;28;20452;-53
2022/08/15 13:09:11;;;;;;;5.90;3.53;;;;;;;;;;5052220;28;20485;-52
2022/08/15 13:11:39;;;;;;;4.67;4.20;;;;;;;;;;5051303;28;20975;-53
2022/08/15 13:14:05;;;;;;;4.87;3.57;;;;;;;;;;5052058;28;20393;-53
2022/08/15 13:16:32;;;;;;;4.73;4.23;;;;;;;;;;5052855;28;20664;-52
2022/08/15 13:19:01;;;;;;;5.20;3.73;;;;;;;;;;5051990;28;20397;-52
2022/08/15 13:24:11;;;;;;;6.00;4.10;;;;;;;;;;5038931;28;20405;-53
2022/08/15 13:26:42;;;;;;;7.30;4.23;;;;;;;;;;5040307;28;20467;-52
2022/08/15 13:29:08;;;;;;;4.17;3.77;;;;;;;;;;5032318;28;20413;-53
2022/08/15 13:31:35;;;;;;;5.33;4.80;;;;;;;;;;5032047;28;20457;-52
2022/08/15 13:34:01;;;;;;;3.20;2.90;;;;;;;;;;5032027;28;20399;-53
2022/08/15 13:36:28;;;;;;;4.50;3.80;;;;;;;;;;5048980;28;20480;-52
2022/08/15 13:38:55;;;;;;;4.07;3.50;;;;;;;;;;5051814;28;20454;-52
2022/08/15 13:41:21;;;;;;;4.20;3.90;;;;;;;;;;5038639;28;20476;-52
2022/08/15 13:43:51;;;;;;;4.10;3.70;;;;;;;;;;5049586;28;20420;-52
2022/08/15 13:46:18;;;;;;;4.27;3.87;;;;;;;;;;5051704;28;20412;-52
2022/08/15 13:48:46;;;;;;;4.47;4.07;;;;;;;;;;5051528;28;20771;-52
2022/08/15 13:51:21;;;;;;;4.63;3.90;;;;;;;;;;5039012;28;20464;-52
2022/08/15 13:53:48;;;;;;;7.10;4.17;;;;;;;;;;5035081;28;20532;-52
2022/08/15 13:56:15;;;;;;;5.50;3.70;;;;;;;;;;5049121;28;20478;-52
2022/08/15 13:58:41;;;;;;;6.23;4.27;;;;;;;;;;5051441;28;20394;-53
2022/08/15 14:01:09;;;;;;;5.00;4.30;;;;;;;;;;5037596;28;20445;-52
2022/08/15 14:03:36;;;;;;;4.60;4.20;;;;;;;;;;5031489;28;20406;-52
2022/08/15 14:06:02;;;;;;;4.70;4.27;;;;;;;;;;5040272;28;20481;-52
2022/08/15 14:08:28;;;;;;;4.60;4.20;;;;;;;;;;5051064;28;20424;-52
2022/08/15 14:10:55;;;;;;;3.93;3.50;;;;;;;;;;5047289;28;20456;-52
2022/08/15 14:13:23;;;;;;;4.70;3.90;;;;;;;;;;5045236;28;20416;-52
2022/08/15 14:15:51;;;;;;;5.13;3.97;;;;;;;;;;5038636;28;20417;-52
2022/08/15 14:18:17;;;;;;;5.93;4.60;;;;;;;;;;5049561;28;20425;-52
2022/08/15 14:20:44;;;;;;;5.20;4.07;;;;;;;;;;5044782;28;20413;-52
2022/08/15 14:23:10;;;;;;;4.53;3.90;;;;;;;;;;5029875;28;20426;-52
2022/08/15 14:25:37;;;;;;;4.90;4.50;;;;;;;;;;5043861;28;20437;-52
2022/08/15 14:28:05;;;;;;;6.13;3.60;;;;;;;;;;5051178;28;20425;-52
2022/08/15 14:30:31;;;;;;;4.50;3.47;;;;;;;;;;5035193;28;20569;-52
2022/08/15 14:33:00;;;;;;;4.60;4.23;;;;;;;;;;5031347;28;21147;-52
2022/08/15 14:35:27;;;;;;;4.20;3.80;;;;;;;;;;5042063;28;20425;-52
2022/08/15 14:37:54;;;;;;;5.33;3.57;;;;;;;;;;5051822;28;20425;-52
2022/08/15 14:40:23;;;;;;;4.03;3.77;;;;;;;;;;5042170;28;20414;-51
2022/08/15 14:42:51;;;;;;;4.63;3.60;;;;;;;;;;5035099;28;20434;-51
2022/08/15 14:45:17;;;;;;;5.03;4.20;;;;;;;;;;5045210;28;20409;-51
2022/08/15 14:47:44;;;;;;;7.83;3.90;;;;;;;;;;5054991;28;20425;-52
2022/08/15 14:50:10;;;;;;;5.43;3.93;;;;;;;;;;5045130;28;20430;-51
2022/08/15 14:52:36;;;;;;;6.43;3.77;;;;;;;;;;5034831;28;20492;-52
2022/08/15 14:55:04;;;;;;;3.80;3.50;;;;;;;;;;5042900;28;20864;-51
2022/08/15 14:57:30;;;;;;;4.20;3.90;;;;;;;;;;5053656;28;20441;-53
2022/08/15 14:59:56;;;;;;;3.60;3.40;;;;;;;;;;5047667;28;20429;-52
2022/08/15 15:02:22;;;;;;;4.53;4.13;;;;;;;;;;5034142;28;20398;-51
2022/08/15 15:04:51;;;;;;;4.63;4.20;;;;;;;;;;5038976;28;20436;-51
2022/08/15 15:07:17;;;;;;;4.83;4.43;;;;;;;;;;5054565;28;20436;-52
2022/08/15 15:09:44;;;;;;;3.90;3.50;;;;;;;;;;5052241;28;20921;-53